Orbital elements of COSMOS 970 DEB
| Launched | 20 December 1977 |
| Flight ended | – |
| Launch site | Tyuratam Missile and Space Center, Kazakhstan (Also known as Baikonur Cosmodrome) |
| Owner | Commonwealth of Independent States (former USSR) |
| NORAD ID | 64977 |
| Date fetched |
Epoch osculation |
Inc. [°] |
Ecc. | RA asc node [hr] |
Arg Peri. [°] |
Mean anom [°] |
Mean motion [rev/day] |
Abs. mag |
| Date fetched |
Epoch osculation |
Inc. [°] |
Ecc. | RA asc node [hr] |
Arg Peri. [°] |
Mean anom [°] |
Mean motion [rev/day] |
Abs. mag |
| 2026 May 03 17:57 | 2026 Apr 30 13:59:28 | 65.7696 | 0.01109 | 4.4873 | 58.3918 | 120.0453 | 13.71267 | – |
| 2026 May 02 17:57 | 2026 Apr 30 13:59:28 | 65.7696 | 0.01109 | 4.4873 | 58.3918 | 120.0453 | 13.71267 | – |
| 2026 May 01 17:56 | 2026 Apr 30 13:59:28 | 65.7696 | 0.01109 | 4.4873 | 58.3918 | 120.0453 | 13.71267 | – |
| 2026 Apr 30 17:56 | 2026 Apr 30 13:59:28 | 65.7696 | 0.01109 | 4.4873 | 58.3918 | 120.0453 | 13.71267 | – |
| 2026 Apr 29 17:57 | 2026 Apr 23 09:58:50 | 65.7679 | 0.01104 | 5.6634 | 62.0221 | 120.0453 | 13.71267 | – |
| 2026 Apr 28 17:56 | 2026 Apr 23 09:58:50 | 65.7679 | 0.01104 | 5.6634 | 62.0221 | 120.0453 | 13.71267 | – |
| 2026 Apr 27 17:58 | 2026 Apr 23 09:58:50 | 65.7679 | 0.01104 | 5.6634 | 62.0221 | 120.0453 | 13.71267 | – |
| 2026 Apr 26 17:58 | 2026 Apr 23 09:58:50 | 65.7679 | 0.01104 | 5.6634 | 62.0221 | 120.0453 | 13.71267 | – |
| 2026 Apr 25 17:58 | 2026 Apr 23 09:58:50 | 65.7679 | 0.01104 | 5.6634 | 62.0221 | 120.0453 | 13.71267 | – |
| 2026 Apr 24 17:59 | 2026 Apr 23 09:58:50 | 65.7679 | 0.01104 | 5.6634 | 62.0221 | 120.0453 | 13.71267 | – |
| 2026 Apr 23 17:57 | 2026 Apr 18 14:35:24 | 65.7674 | 0.01101 | 6.4524 | 64.4966 | 120.0453 | 13.71267 | – |
| 2026 Apr 22 17:57 | 2026 Apr 18 14:35:24 | 65.7674 | 0.01101 | 6.4524 | 64.4966 | 120.0453 | 13.71267 | – |
| 2026 Apr 21 17:57 | 2026 Apr 18 14:35:24 | 65.7674 | 0.01101 | 6.4524 | 64.4966 | 120.0453 | 13.71267 | – |
| 2026 Apr 20 17:57 | 2026 Apr 18 14:35:24 | 65.7674 | 0.01101 | 6.4524 | 64.4966 | 120.0453 | 13.71267 | – |
| 2026 Apr 19 17:58 | 2026 Apr 18 14:35:24 | 65.7674 | 0.01101 | 6.4524 | 64.4966 | 120.0453 | 13.71267 | – |
| 2026 Apr 18 17:56 | 2026 Apr 12 07:37:55 | 65.7668 | 0.01098 | 7.4846 | 67.7380 | 120.0453 | 13.71267 | – |
| 2026 Apr 16 17:57 | 2026 Apr 12 07:37:55 | 65.7668 | 0.01098 | 7.4846 | 67.7380 | 120.0453 | 13.71267 | – |
| 2026 Apr 14 17:57 | 2026 Apr 12 07:37:55 | 65.7668 | 0.01098 | 7.4846 | 67.7380 | 120.0453 | 13.71267 | – |
| 2026 Apr 13 17:57 | 2026 Apr 12 07:37:55 | 65.7668 | 0.01098 | 7.4846 | 67.7380 | 120.0453 | 13.71267 | – |
| 2026 Apr 12 17:57 | 2026 Apr 07 19:53:01 | 65.7671 | 0.01097 | 8.2214 | 70.0932 | 120.0453 | 13.71267 | – |
| 2026 Apr 11 17:57 | 2026 Apr 07 19:53:01 | 65.7671 | 0.01097 | 8.2214 | 70.0932 | 120.0453 | 13.71267 | – |
| 2026 Apr 10 17:58 | 2026 Apr 07 19:53:01 | 65.7671 | 0.01097 | 8.2214 | 70.0932 | 120.0453 | 13.71267 | – |
| 2026 Apr 09 18:01 | 2026 Apr 07 19:53:01 | 65.7671 | 0.01097 | 8.2214 | 70.0932 | 120.0453 | 13.71267 | – |
| 2026 Apr 08 17:57 | 2026 Apr 07 19:53:01 | 65.7671 | 0.01097 | 8.2214 | 70.0932 | 120.0453 | 13.71267 | – |
| 2026 Apr 07 17:57 | 2026 Mar 29 22:19:45 | 65.7677 | 0.01095 | 9.6816 | 74.7823 | 120.0453 | 13.71267 | – |
| 2026 Apr 06 17:57 | 2026 Mar 29 22:19:45 | 65.7677 | 0.01095 | 9.6816 | 74.7823 | 120.0453 | 13.71267 | – |